NCAR-RAP Real-Time Weather Data

Output produced by METARs form (12 August 2020  18:23 UTC)
found at http://weather.rap.ucar.edu/surface/
 
KAUW 121754Z AUTO 21006KT 7SM CLR 28/13 A3012 RMK AO2 SLP196 T02780128 10283 20150 51013
KAUW 121654Z AUTO 16008KT 120V190 8SM CLR 27/12 A3011 RMK AO2 SLP194 T02720122
KAUW 121554Z AUTO 18003KT 6SM HZ CLR 26/15 A3011 RMK AO2 SLP194 T02560150
KAUW 121454Z AUTO 21004KT 6SM HZ CLR 24/16 A3008 RMK AO2 SLP183 T02390156 58012
KAUW 121354Z AUTO 00000KT 6SM HZ CLR 22/14 A3009 RMK AO2 SLP188 T02170139 TSNO
KAUW 121254Z AUTO 10003KT 6SM HZ CLR 18/15 A3010 RMK AO2 SLP193 T01830150 TSNO
KAUW 121154Z AUTO 00000KT 5SM BR CLR 15/14 A3011 RMK AO2 SLP196 T01500144 10172 20150 53013 TSNO
KAUW 121054Z AUTO 00000KT 6SM BR CLR 16/14 A3010 RMK AO2 SLP192 T01610144 TSNO
KAUW 120954Z AUTO 36003KT 6SM BR CLR 16/14 A3008 RMK AO2 SLP184 T01560139 TSNO
KAUW 120854Z AUTO 00000KT 7SM CLR 17/14 A3007 RMK AO2 SLP182 T01720139 53013
KAUW 120754Z AUTO 00000KT 6SM BR CLR 16/14 A3006 RMK AO2 SLP177 T01610139
KAUW 120654Z AUTO 00000KT 6SM BR CLR 15/14 A3005 RMK AO2 SLP173 T01500139
KAUW 120554Z AUTO 00000KT 6SM HZ CLR 17/14 A3004 RMK AO2 SLP170 T01670139 10256 20161 402780128 53009
KAUW 120454Z AUTO 00000KT 6SM HZ CLR 17/14 A3002 RMK AO2 SLP166 T01720144
KAUW 120354Z AUTO 00000KT 6SM HZ CLR 18/14 A3001 RMK AO2 SLP162 T01830139
KAUW 120254Z AUTO 00000KT 7SM CLR 21/14 A3001 RMK AO2 SLP161 T02060139 53009
KAUW 120154Z AUTO 00000KT 10SM FEW002 22/15 A3000 RMK AO2 SLP158 T02220150
KAUW 120145Z AUTO 00000KT 10SM FEW002 22/14 A2999 RMK AO2 T02170144
KAUW 120054Z AUTO 25004KT 9SM CLR 24/13 A2999 RMK AO2 SLP154 T02390133
KAUW 112354Z AUTO 25005KT 9SM CLR 26/13 A2998 RMK AO2 SLP153 T02560133 10278 20256 56002
KAUW 112254Z AUTO 10SM CLR 27/12 A2998 RMK AO2 SLP153 T02670122
KAUW 112154Z AUTO 25010KT 10SM CLR 27/12 A2998 RMK AO2 SLP153 T02720117